Terminal Aerodrome Forecast
Issued by NWS

Home | Current Version | Previous Version | Graphics & Text | Print | Product List | Glossary On
Versions: 1 2 3 4 5 6 7 8 9 10 11 12 13 14
000
FTUS43 KBIS 201100
TAFJMS
TAF
KJMS 201125Z 2012/2112 16006KT P6SM SKC
     FM201500 17010KT P6SM FEW250
     FM201900 19015KT P6SM FEW250
     FM210100 26011KT P6SM VCSH SCT070 BKN090
     FM210500 29009KT P6SM SKC=

USA.gov is the U.S. government's official web portal to all federal, state and local government web resources and services.